Time;durP1;ratioP1;P1;durP2;ratioP2;P2;SDS_P1;SDS_P2;PMS_P1;PMS_P2;Temp;Humidity;BMP_temperature;BMP_pressure;BME280_temperature;BME280_humidity;BME280_pressure;Samples;Min_cycle;Max_cycle;Signal;HPM_P1;HPM_P2
2023/12/26 08:44:56;;;;;;;5.40;1.80;;;;;;;6.65;82.71;96604.72;2083747;28;20546;-71
2023/12/26 08:45:58;;;;;;;6.68;1.75;;;;;;;6.67;82.75;96607.25;2078407;28;20841;-70
2023/12/26 08:47:03;;;;;;;7.80;1.45;;;;;;;6.64;82.84;96599.53;2078517;28;20195;-70
2023/12/26 09:06:30;;;;;;;4.78;1.77;;;;;;;6.44;84.75;96610.53;2100928;27;20557;-70
2023/12/26 09:07:31;;;;;;;11.98;1.83;;;;;;;6.61;85.09;96641.16;2097677;28;20202;-70
2023/12/26 09:08:33;;;;;;;4.15;1.60;;;;;;;6.61;84.47;96635.97;2096656;28;20601;-71
2023/12/26 09:20:42;;;;;;;5.75;1.20;;;;;;;6.61;85.37;96656.75;2083576;28;20560;-67
2023/12/26 09:21:44;;;;;;;6.32;1.30;;;;;;;6.61;85.89;96665.34;2081825;28;20201;-68
2023/12/26 09:22:45;;;;;;;6.88;1.83;;;;;;;6.56;85.88;96643.06;2081415;28;20715;-68
2023/12/26 09:33:19;;;;;;;5.72;2.05;;;;;;;6.53;86.54;96669.94;2101759;27;20581;-69
2023/12/26 09:34:21;;;;;;;8.20;1.70;;;;;;;6.54;86.94;96680.25;2091137;28;20225;-68
2023/12/26 09:35:23;;;;;;;5.75;1.98;;;;;;;6.47;86.56;96657.13;2082283;28;20197;-69
2023/12/26 09:46:09;;;;;;;5.43;1.10;;;;;;;6.50;87.00;96673.47;2107888;27;20551;-67
2023/12/26 09:47:10;;;;;;;7.00;1.15;;;;;;;6.61;86.81;96693.06;2108507;28;20254;-69
2023/12/26 09:48:12;;;;;;;3.10;1.20;;;;;;;6.61;86.78;96688.72;2106214;28;20208;-69
2023/12/26 09:57:45;;;;;;;4.40;1.15;;;;;;;6.67;86.61;96711.91;2130361;27;20546;-68
2023/12/26 09:58:48;;;;;;;9.98;1.48;;;;;;;6.63;86.34;96686.94;2132453;27;20215;-68
2023/12/26 09:59:51;;;;;;;2.60;1.10;;;;;;;6.70;85.99;96698.84;2110679;27;20230;-69
2023/12/26 10:09:02;;;;;;;2.33;1.20;;;;;;;6.75;86.06;96703.06;2098937;27;21044;-68
2023/12/26 10:10:05;;;;;;;3.55;0.90;;;;;;;6.86;86.01;96716.59;2089254;28;20708;-69
2023/12/26 10:11:10;;;;;;;6.20;1.20;;;;;;;6.91;86.11;96719.91;2085983;28;20601;-68
2023/12/26 10:19:15;;;;;;;3.20;1.00;;;;;;;6.92;85.82;96702.56;2100521;27;20580;-69
2023/12/26 10:20:18;;;;;;;3.70;1.30;;;;;;;6.99;85.48;96696.31;2106095;28;20194;-69
2023/12/26 10:21:19;;;;;;;3.25;1.05;;;;;;;7.05;85.57;96716.03;2106424;28;20232;-69
2023/12/26 10:29:26;;;;;;;3.10;1.00;;;;;;;7.02;85.91;96699.66;2095251;27;20561;-70
2023/12/26 10:30:28;;;;;;;1.58;0.93;;;;;;;7.08;86.09;96700.38;2087199;28;20215;-70
2023/12/26 10:31:29;;;;;;;2.22;0.95;;;;;;;7.10;85.58;96703.78;2085842;28;20292;-70
2023/12/26 10:40:22;;;;;;;3.30;1.00;;;;;;;7.00;86.14;96664.25;2100941;27;20560;-68
2023/12/26 10:41:27;;;;;;;3.95;1.30;;;;;;;7.12;86.35;96678.59;2097693;28;20286;-70
2023/12/26 10:49:40;;;;;;;3.35;1.00;;;;;;;7.26;86.36;96717.16;2094764;27;20574;-70
2023/12/26 10:50:42;;;;;;;1.52;0.70;;;;;;;7.26;85.80;96714.53;2098326;28;20208;-70
2023/12/26 10:58:17;;;;;;;4.40;1.20;;;;;;;7.35;85.40;96727.25;2100811;27;20580;-68
2023/12/26 14:14:23;;;;;;;2.40;0.88;;;;;;;7.16;93.14;96807.47;2123801;27;20257;-73
2023/12/26 14:19:06;;;;;;;1.95;0.93;;;;;;;7.37;92.34;96802.56;2141548;27;20526;-75
2023/12/26 14:20:51;;;;;;;1.90;0.80;;;;;;;7.37;92.05;96794.78;2112196;28;20223;-73
2023/12/26 14:22:31;;;;;;;1.30;0.80;;;;;;;7.39;91.92;96796.44;2113965;28;20194;-73
2023/12/26 14:24:14;;;;;;;1.95;0.93;;;;;;;7.44;91.50;96814.47;2118364;27;20711;-76
2023/12/26 14:25:56;;;;;;;8.43;1.00;;;;;;;7.65;90.59;96820.78;2111429;28;20206;-74
2023/12/26 14:27:39;;;;;;;2.83;1.10;;;;;;;8.04;88.83;96810.03;2109431;28;20233;-74
2023/12/26 14:29:18;;;;;;;6.85;1.17;;;;;;;8.28;87.26;96815.34;2117541;28;20190;-74
2023/12/26 14:30:59;;;;;;;5.00;1.75;;;;;;;8.33;86.43;96803.88;2118577;28;20644;-74
2023/12/26 14:32:39;;;;;;;3.92;1.60;;;;;;;8.39;86.13;96807.19;2125424;27;20200;-74
2023/12/26 14:34:18;;;;;;;6.15;2.03;;;;;;;8.40;86.34;96807.13;2127231;27;20189;-74
2023/12/26 14:35:58;;;;;;;4.07;1.30;;;;;;;8.19;86.61;96811.31;2119334;28;20209;-74
2023/12/26 14:37:37;;;;;;;2.38;1.05;;;;;;;7.93;87.84;96819.94;2119194;28;20186;-66
2023/12/26 14:39:16;;;;;;;3.13;0.93;;;;;;;7.79;88.56;96817.75;2119370;28;20552;-66
2023/12/26 14:40:59;;;;;;;4.43;0.95;;;;;;;7.70;89.13;96825.84;2119722;28;20241;-66
2023/12/26 14:42:38;;;;;;;3.83;1.45;;;;;;;7.65;89.03;96834.59;2119204;28;20193;-67
2023/12/26 14:44:19;;;;;;;1.65;0.85;;;;;;;7.60;89.67;96849.50;2118854;28;20276;-66
2023/12/26 14:51:42;;;;;;;2.22;0.90;;;;;;;7.67;89.59;96853.63;2138063;27;21010;-65
2023/12/26 14:53:22;;;;;;;2.60;0.98;;;;;;;7.69;89.65;96853.56;2132863;27;20203;-66
